General Vatutin — USNZ — position and weather

sailwx.info

Track history (hours):
 
Tides and Currents Weather Stations Pressure Air Temp Water Temp Dewpoint Dewpoint Depression Visibility Wind Speed Wind Dir Waves Ship Positions

General Vatutin

Last reported at 2017-May-30 23:53 UTC. Time now 2017-Oct-17 15:31 UTC.
Position N 45°55' E 030°37'.
Warning: this ship's position is months out of date.

Length 129 m; draft 2.9 m.

Type: Passenger vessel. MMSI: 272877300.

Date/timePositionNaut miles runAvg speedWind from/ knotsBaromVisibWave heightAir tempDewpointWater temp
2017-May-30 23:53N 45°55' E 030°37'4 9.8
2017-May-30 23:31N 45°58' E 030°41'5 9.3
2017-May-30 23:01N 46°00' E 030°46'5 9.8
2017-May-30 22:31N 46°04' E 030°50'5 9.8
2017-May-30 22:00N 46°08' E 030°55'5 9.7
2017-May-30 21:30N 46°12' E 030°60'5 9.7
2017-May-30 21:01N 46°15' E 031°04'5 9.9
2017-May-30 20:30N 46°19' E 031°08'5 9.8
2017-May-30 20:00N 46°23' E 031°12'5 9.8
2017-May-30 19:30N 46°27' E 031°17'5 9.5
2017-May-30 19:00N 46°30' E 031°22'5 9.5
2017-May-30 18:31N 46°34' E 031°26'4 7.3
2017-May-30 18:01N 46°35' E 031°31'5 9.2
2017-May-30 17:25N 46°36' E 031°39'4 9.5
2017-May-30 16:59N 46°36' E 031°45'5 9.4
2017-May-30 16:26N 46°35' E 031°53'4 9.7
2017-May-30 16:00N 46°33' E 031°58'  
Track history (hours):
 
Tides and Currents Weather Stations Pressure Air Temp Water Temp Dewpoint Dewpoint Depression Visibility Wind Speed Wind Dir Waves Ship Positions

General Vatutin

Last reported at 2017-May-30 23:53 UTC. Time now 2017-Oct-17 15:31 UTC.
Position N 45°55' E 030°37'.
Warning: this ship's position is months out of date.

Length 129 m; draft 2.9 m.

Type: Passenger vessel. MMSI: 272877300.

Date/timePositionNaut miles runAvg speedWind from/ knotsBaromVisibWave heightAir tempDewpointWater temp
2017-May-30 23:53N 45°55' E 030°37'4 9.8
2017-May-30 23:31N 45°58' E 030°41'5 9.3
2017-May-30 23:01N 46°00' E 030°46'5 9.8
2017-May-30 22:31N 46°04' E 030°50'5 9.8
2017-May-30 22:00N 46°08' E 030°55'5 9.7
2017-May-30 21:30N 46°12' E 030°60'5 9.7
2017-May-30 21:01N 46°15' E 031°04'5 9.9
2017-May-30 20:30N 46°19' E 031°08'5 9.8
2017-May-30 20:00N 46°23' E 031°12'5 9.8
2017-May-30 19:30N 46°27' E 031°17'5 9.5
2017-May-30 19:00N 46°30' E 031°22'5 9.5
2017-May-30 18:31N 46°34' E 031°26'4 7.3
2017-May-30 18:01N 46°35' E 031°31'5 9.2
2017-May-30 17:25N 46°36' E 031°39'4 9.5
2017-May-30 16:59N 46°36' E 031°45'5 9.4
2017-May-30 16:26N 46°35' E 031°53'4 9.7
2017-May-30 16:00N 46°33' E 031°58'  

Dump ship's entire track history